Casey Cardinia Extra HPV Festival 2012 on Casey @ loops
Laptimes of 2 Hr Obstacle Race - 2Hr Obstacle event


Time of Day Lap LeadLap Lap Tm Speed Hits Strength Noise
68 - FBRD EDEC - Community
8:53:37.6 1 1 1:43.820 41.610 76 177 0
8:55:51.1 2 2 2:13.493 32.361 77 178 0
8:57:51.0 3 3 1:59.906 36.028 70 178 0
8:59:24.6 4 4 1:33.558 46.175 73 177 0
9:01:25.2 5 5 2:00.585 35.825 75 178 0
9:03:26.4 6 6 2:01.240 35.632 69 176 0
9:05:13.0 7 7 1:46.649 40.507 69 176 0
9:07:06.1 8 8 1:53.076 38.204 71 178 0
9:08:59.0 9 9 1:52.867 38.275 76 179 0
9:11:09.8 10 10 2:10.778 33.033 73 177 0
9:13:19.5 11 11 2:09.759 33.292 69 176 0
9:15:02.0 12 12 1:42.466 42.160 69 177 0
9:16:51.3 13 13 1:49.294 39.526 78 178 0
9:19:01.6 14 14 2:10.313 33.151 72 178 0
9:20:47.0 15 15 1:45.437 40.972 70 177 0
9:22:34.1 16 16 1:47.058 40.352 71 177 0
9:24:38.0 17 17 2:03.860 34.878 76 178 0
9:26:50.2 18 18 2:12.211 32.675 72 177 0
9:28:43.9 19 19 1:53.711 37.991 67 174 0
9:30:40.3 20 20 1:56.402 37.113 68 175 0
9:32:36.6 21 21 1:56.273 37.154 71 177 0
9:34:48.9 22 22 2:12.392 32.630 65 176 0
9:36:35.1 23 23 1:46.184 40.684 73 177 0
9:38:32.5 24 24 1:57.368 36.807 80 178 0
9:40:43.3 25 25 2:10.785 33.031 78 178 0
9:43:03.2 26 26 2:19.910 30.877 76 178 0
9:45:16.5 27 27 2:13.349 32.396 76 179 0
9:46:59.9 28 28 1:43.379 41.788 67 175 0
9:48:48.0 29 29 1:48.126 39.953 76 179 0
9:51:08.8 30 30 2:20.752 30.692 72 178 0
9:52:59.5 31 31 1:50.682 39.031 68 176 0
9:54:51.3 32 32 1:51.809 38.637 70 178 0
9:56:47.4 33 33 1:56.138 37.197 80 178 0
9:58:55.2 34 34 2:07.802 33.802 75 179 0
10:00:59.0 35 35 2:03.746 34.910 71 176 0
10:02:40.5 36 36 1:41.517 42.554 78 177 0
10:04:26.1 37 37 1:45.559 40.925 76 179 0
10:06:28.7 38 38 2:02.670 35.216 68 175 0
10:08:20.7 39 39 1:52.009 38.568 78 179 0
10:10:13.9 40 40 1:53.168 38.173 71 178 0
10:12:10.4 41 41 1:56.499 37.082 83 177 0
10:14:28.0 42 42 2:17.609 31.393 75 177 0
10:16:24.4 43 43 1:56.440 37.101 71 178 0
10:18:04.7 44 44 1:40.302 43.070 70 176 0
10:19:49.0 45 45 1:44.206 41.456 77 179 0
10:21:50.6 46 46 2:01.604 35.525 68 177 0
10:23:37.4 47 47 1:46.853 40.429 68 175 0
10:25:27.9 48 48 1:50.479 39.102 79 178 0
10:27:22.8 49 49 1:54.902 37.597 69 176 0
10:29:25.2 50 50 2:02.453 35.279 68 176 0
10:31:11.7 51 51 1:46.500 40.563 84 180 0
38 - Pacemakers EDEC - Community
8:53:44.2 1 1 1:49.647 39.399 71 182 0
8:55:42.3 2 2 1:58.053 36.594 83 186 0
8:57:37.1 3 3 1:54.832 37.620 67 182 0
8:59:40.4 4 4 2:03.339 35.025 77 187 0
9:01:48.5 5 5 2:08.053 33.736 67 184 0
9:03:41.2 6 6 1:52.658 38.346 65 185 0
9:05:29.2 7 7 1:48.052 39.981 77 183 0
9:07:21.8 8 8 1:52.624 38.358 69 183 0
9:09:21.2 9 9 1:59.406 36.179 68 184 0
9:11:25.8 10 10 2:04.564 34.681 68 184 0
9:13:27.9 11 11 2:02.093 35.383 76 186 0
9:15:17.9 12 12 1:49.963 39.286 65 182 0
9:17:12.7 13 13 1:54.837 37.619 69 183 0
9:19:13.8 14 14 2:01.152 35.658 71 184 0
9:21:06.1 15 15 1:52.280 38.475 70 185 0
9:23:14.9 16 16 2:08.758 33.551 71 184 0
9:25:06.8 17 17 1:51.891 38.609 69 183 0
9:26:48.7 18 18 1:41.958 42.370 72 186 0
9:28:42.3 19 19 1:53.602 38.027 66 183 0
9:30:42.4 20 20 2:00.077 35.977 66 184 0
9:32:51.3 21 21 2:08.881 33.519 70 185 0
9:34:46.9 22 22 1:55.584 37.375 69 184 0
9:36:44.4 23 23 1:57.503 36.765 68 182 0
9:38:38.1 24 24 1:53.694 37.997 71 184 0
9:40:37.8 25 25 1:59.701 36.090 75 184 0
9:42:44.2 26 26 2:06.399 34.177 76 184 0
9:46:03.5 27 27 3:19.359 21.669 68 183 0
9:47:54.2 28 28 1:50.687 39.029 68 180 0
9:49:57.1 29 29 2:02.903 35.150 76 183 0
9:51:59.2 30 30 2:02.115 35.376 84 185 0
9:54:04.0 31 31 2:04.791 34.618 71 185 0
9:55:53.2 32 32 1:49.156 39.576 77 187 0
9:57:45.5 33 33 1:52.315 38.463 83 186 0
9:59:52.8 34 34 2:07.293 33.937 76 187 0
10:01:49.5 35 35 1:56.705 37.016 70 185 0
10:03:48.0 36 36 1:58.493 36.458 68 184 0
10:05:37.6 37 37 1:49.618 39.410 68 182 0
10:07:20.7 38 38 1:43.128 41.890 70 183 0
10:09:14.0 39 39 1:53.240 38.149 79 186 0
10:11:18.6 40 40 2:04.593 34.673 70 184 0
10:13:11.7 41 41 1:53.176 38.171 67 183 0
10:14:59.4 42 42 1:47.665 40.124 68 184 0
10:16:45.3 43 43 1:45.916 40.787 73 186 0
10:19:31.3 44 44 2:45.998 26.024 71 183 0
10:21:20.3 45 45 1:49.008 39.630 69 185 0
10:23:17.1 46 46 1:56.738 37.006 68 184 0
10:25:02.6 47 47 1:45.534 40.935 66 183 0
10:26:49.8 48 48 1:47.233 40.286 70 182 0
10:28:41.4 49 49 1:51.549 38.727 70 180 0
10:30:35.7 50 50 1:54.301 37.795 68 183 0
10:32:26.6 51 51 1:50.933 38.942 71 184 0
22 - Shooting Star SMS/BGS - Primary
8:53:42.0 1 1 1:46.730 40.476 75 154 0
8:56:13.8 2 2 2:31.805 28.458 69 153 0
8:58:27.8 3 3 2:14.014 32.235 76 157 0
9:00:45.8 4 4 2:17.964 31.313 68 152 0
9:02:53.7 5 5 2:07.862 33.786 81 158 0
9:05:36.6 6 7 2:42.914 26.517 68 153 0
9:07:45.5 7 8 2:08.942 33.503 83 160 0
9:10:14.6 8 9 2:29.061 28.981 66 152 0
9:12:15.3 9 10 2:00.675 35.799 73 155 0
9:14:22.0 10 11 2:06.784 34.074 66 153 0
9:16:32.2 11 12 2:10.138 33.196 74 155 0
9:18:41.8 12 13 2:09.594 33.335 67 154 0
9:20:51.8 13 15 2:10.040 33.221 76 156 0
9:23:10.5 14 16 2:18.675 31.152 68 153 0
9:25:15.1 15 17 2:04.647 34.658 73 154 0
9:27:28.6 16 18 2:13.451 32.371 77 157 0
9:29:31.3 17 19 2:02.684 35.212 71 153 0
9:31:34.7 18 20 2:03.464 34.990 78 157 0
9:33:43.1 19 21 2:08.367 33.654 69 153 0
9:35:53.9 20 22 2:10.831 33.020 65 152 0
9:38:02.8 21 23 2:08.846 33.528 72 154 0
9:40:21.9 22 24 2:19.142 31.047 68 153 0
9:42:25.7 23 25 2:03.792 34.897 72 154 0
9:44:50.2 24 26 2:24.460 29.904 67 153 0
9:46:53.0 25 27 2:02.870 35.159 70 153 0
9:48:49.4 26 29 1:56.340 37.133 71 153 0
9:51:07.8 27 29 2:18.412 31.211 71 153 0
9:53:20.4 28 31 2:12.634 32.571 71 152 0
9:55:32.5 29 32 2:12.069 32.710 73 154 0
9:57:55.9 30 33 2:23.403 30.125 69 154 0
10:00:00.1 31 34 2:04.190 34.785 76 156 0
10:02:25.7 32 35 2:25.637 29.663 67 152 0
10:04:27.4 33 37 2:01.721 35.491 75 154 0
10:07:11.6 34 38 2:44.167 26.315 70 153 0
10:09:20.5 35 39 2:08.920 33.509 75 156 0
10:11:40.7 36 40 2:20.120 30.831 76 155 0
10:13:39.7 37 41 1:59.017 36.297 70 152 0
10:15:53.5 38 42 2:13.866 32.271 70 154 0
10:18:10.9 39 44 2:17.377 31.446 71 153 0
10:20:29.8 40 45 2:18.902 31.101 64 152 0
10:22:29.5 41 46 1:59.679 36.097 73 154 0
10:24:38.7 42 47 2:09.219 33.432 70 153 0
10:26:43.2 43 48 2:04.512 34.695 68 153 0
10:28:51.5 44 49 2:08.231 33.689 78 157 0
10:30:53.2 45 50 2:01.728 35.489 64 152 0
10:33:00.9 46 51 2:07.671 33.837 65 152 0
10:35:21.9 46 51 2:21.085 30.620 84 159 0
73 - Luigi KooWeeRup - Community
8:54:08.2 1 1 2:03.499 34.980 67 133 0
8:56:27.8 2 2 2:19.519 30.964 77 138 0
8:59:29.4 3 4 3:01.658 23.781 64 133 0
9:01:42.0 4 5 2:12.583 32.583 76 136 0
9:03:49.0 5 6 2:07.014 34.012 75 138 0
9:06:11.7 6 7 2:22.736 30.266 80 140 0
9:08:35.7 7 8 2:23.985 30.003 65 133 0
9:10:40.6 8 9 2:04.882 34.593 64 132 0
9:12:39.9 9 10 1:59.312 36.208 75 137 0
9:14:59.1 10 11 2:19.180 31.039 75 136 0
9:17:18.1 11 13 2:18.965 31.087 67 134 0
9:19:42.7 12 14 2:24.632 29.869 69 135 0
9:21:54.4 13 15 2:11.717 32.798 68 134 0
9:24:25.9 14 16 2:31.438 28.527 76 136 0
9:27:06.3 15 18 2:40.473 26.920 73 136 0
9:29:24.8 16 19 2:18.499 31.192 69 133 0
9:31:35.4 17 20 2:10.542 33.093 78 140 0
9:34:02.9 18 21 2:27.557 29.277 72 136 0
9:36:31.3 19 22 2:28.348 29.121 71 137 0
9:38:43.6 20 24 2:12.301 32.653 70 135 0
9:41:12.9 21 25 2:29.306 28.934 66 134 0
9:43:26.5 22 26 2:13.567 32.343 68 135 0
9:45:40.5 23 27 2:14.096 32.216 71 136 0
9:48:13.2 24 28 2:32.689 28.293 66 134 0
9:50:30.4 25 29 2:17.160 31.496 69 135 0
9:52:49.6 26 30 2:19.243 31.025 68 134 0
9:54:55.6 27 32 2:05.943 34.301 73 137 0
9:57:17.1 28 33 2:21.514 30.527 77 139 0
9:59:27.0 29 34 2:09.875 33.263 72 136 0
10:01:36.2 30 35 2:09.218 33.432 68 135 0
10:03:55.5 31 36 2:19.357 31.000 65 133 0
10:06:21.2 32 37 2:25.635 29.663 67 135 0
10:08:35.9 33 39 2:14.742 32.061 76 138 0
10:10:45.0 34 40 2:09.057 33.474 65 135 0
10:12:49.2 35 41 2:04.249 34.769 64 133 0
10:14:48.8 36 42 1:59.542 36.138 70 136 0
10:16:51.6 37 43 2:02.849 35.165 67 136 0
10:19:00.9 38 44 2:09.271 33.418 67 135 0
10:21:09.2 39 45 2:08.300 33.671 64 134 0
10:23:25.5 40 46 2:16.315 31.691 69 136 0
10:25:32.2 41 48 2:06.657 34.108 61 132 0
10:27:21.6 42 48 1:49.473 39.462 61 132 0
10:29:16.6 43 49 1:54.951 37.581 66 136 0
10:31:28.6 44 51 2:11.969 32.735 62 133 0
10:33:46.7 44 51 2:18.150 31.270 78 140 0
20 - Emerald 4 Emerald PS - Primary
8:55:19.6 1 1 2:25.245 29.743 71 158 0
8:57:33.4 2 2 2:13.766 32.295 68 157 0
8:59:45.7 3 4 2:12.325 32.647 71 158 0
9:02:08.3 4 5 2:22.597 30.295 72 159 0
9:05:04.0 5 6 2:55.684 24.590 84 165 0
9:08:02.1 6 8 2:58.099 24.256 83 164 0
9:10:32.8 7 9 2:30.724 28.662 70 159 0
9:12:42.6 8 10 2:09.798 33.282 84 162 0
9:15:05.6 9 12 2:22.967 30.217 66 157 0
9:17:13.6 10 13 2:08.024 33.744 69 157 0
9:19:31.0 11 14 2:17.390 31.443 65 157 0
9:22:03.8 12 15 2:32.854 28.262 83 163 0
9:24:57.0 13 17 2:53.176 24.946 72 159 0
9:27:20.5 14 18 2:23.458 30.113 75 160 0
9:29:29.3 15 19 2:08.851 33.527 72 160 0
9:32:02.0 16 20 2:32.693 28.292 69 159 0
9:34:04.4 17 21 2:02.350 35.309 71 159 0
9:36:30.3 18 22 2:25.925 29.604 69 159 0
9:39:05.0 19 24 2:34.750 27.916 84 163 0
9:41:40.0 20 25 2:34.953 27.879 71 159 0
9:44:03.8 21 26 2:23.836 30.034 71 160 0
9:46:15.3 22 27 2:11.491 32.854 68 156 0
9:48:28.5 23 28 2:13.218 32.428 71 159 0
9:50:37.5 24 29 2:08.982 33.493 65 156 0
9:52:57.8 25 30 2:20.297 30.792 65 157 0
9:55:10.6 26 32 2:12.761 32.540 81 162 0
9:57:40.5 27 33 2:29.971 28.806 71 160 0
10:00:07.1 28 34 2:26.553 29.477 70 159 0
10:02:42.7 29 36 2:35.656 27.754 68 157 0
10:04:49.9 30 37 2:07.176 33.969 65 157 0
10:07:03.3 31 38 2:13.338 32.399 79 163 0
10:09:34.0 32 39 2:30.714 28.664 74 160 0
10:11:43.3 33 40 2:09.337 33.401 68 157 0
10:13:46.4 34 41 2:03.127 35.086 70 159 0
10:16:02.6 35 42 2:16.195 31.719 68 158 0
10:18:06.7 36 44 2:04.100 34.811 61 156 0
10:20:16.7 37 45 2:09.963 33.240 68 156 0
10:22:37.8 38 46 2:21.090 30.619 76 162 0
10:25:01.6 39 47 2:23.779 30.046 62 156 0
10:26:54.7 40 48 1:53.142 38.182 64 157 0
10:28:49.1 41 49 1:54.397 37.763 69 158 0
10:30:42.8 42 50 1:53.684 38.000 67 160 0
10:32:42.7 43 51 1:59.871 36.039 65 159 0
16 - PCS Tigers Pakenham Consolidated - Primary
8:54:25.8 1 1 2:18.624 31.163 75 160 0
8:56:47.8 2 2 2:21.976 30.428 68 157 0
8:59:23.3 3 3 2:35.522 27.777 73 159 0
9:02:01.2 4 5 2:37.842 27.369 75 161 0
9:04:42.0 5 6 2:40.811 26.864 73 160 0
9:07:17.4 6 8 2:35.421 27.795 76 161 0
9:09:51.0 7 9 2:33.647 28.116 70 159 0
9:12:05.6 8 10 2:14.593 32.097 66 158 0
9:14:22.6 9 11 2:16.952 31.544 67 157 0
9:16:40.1 10 12 2:17.502 31.418 68 157 0
9:19:00.0 11 13 2:19.886 30.882 73 160 0
9:21:29.5 12 15 2:29.547 28.887 84 163 0
9:24:15.9 13 16 2:46.433 25.956 78 162 0
9:27:02.7 14 18 2:46.729 25.910 69 157 0
9:29:22.0 15 19 2:19.301 31.012 70 159 0
9:31:43.9 16 20 2:21.904 30.443 78 161 0
9:33:59.6 17 21 2:15.712 31.832 74 160 0
9:36:21.8 18 22 2:22.253 30.368 67 157 0
9:38:34.3 19 24 2:12.454 32.615 71 159 0
9:40:52.1 20 25 2:17.754 31.360 71 158 0
9:43:04.7 21 26 2:12.655 32.566 67 159 0
9:45:25.7 22 27 2:21.002 30.638 75 161 0
9:47:50.6 23 28 2:24.878 29.818 66 157 0
9:50:06.0 24 29 2:15.441 31.896 68 157 0
9:52:25.0 25 30 2:18.932 31.094 70 159 0
9:54:59.5 26 32 2:34.492 27.963 72 160 0
9:57:38.1 27 33 2:38.662 27.228 71 160 0
10:00:02.6 28 34 2:24.468 29.903 69 157 0
10:02:23.7 29 35 2:21.155 30.605 69 157 0
10:04:41.6 30 37 2:17.869 31.334 67 157 0
10:06:48.6 31 38 2:07.019 34.011 63 157 0
10:09:04.1 32 39 2:15.513 31.879 67 157 0
10:11:12.9 33 40 2:08.771 33.548 68 158 0
10:13:17.4 34 41 2:04.526 34.692 67 156 0
10:15:27.8 35 42 2:10.371 33.136 72 159 0
10:17:39.1 36 43 2:11.327 32.895 71 160 0
10:20:06.1 37 45 2:26.948 29.398 65 157 0
10:22:15.8 38 46 2:09.710 33.305 70 158 0
10:24:36.8 39 47 2:21.012 30.636 71 158 0
10:26:51.6 40 48 2:14.763 32.056 64 156 0
10:28:51.8 41 49 2:00.214 35.936 76 161 0
10:31:14.5 42 51 2:22.682 30.277 83 164 0
67 - Cosmic Rocket SMS/BGS - Primary
8:54:11.8 1 1 2:05.079 34.538 72 169 0
8:56:34.6 2 2 2:22.778 30.257 83 173 0
8:59:19.1 3 3 2:44.530 26.257 72 169 0
9:01:27.5 4 5 2:08.366 33.654 82 172 0
9:04:51.7 5 6 3:24.274 21.148 76 170 0
9:07:08.7 6 8 2:16.965 31.541 72 168 0
9:09:33.1 7 9 2:24.452 29.906 83 172 0
9:12:01.2 8 10 2:28.025 29.184 77 169 0
9:14:37.6 9 11 2:36.457 27.611 74 170 0
9:16:49.9 10 12 2:12.224 32.672 74 170 0
9:19:16.9 11 14 2:27.097 29.368 80 170 0
9:21:41.3 12 15 2:24.395 29.918 80 171 0
9:24:04.7 13 16 2:23.372 30.131 77 171 0
9:26:46.5 14 17 2:41.788 26.702 79 172 0
9:29:05.1 15 19 2:18.605 31.168 77 169 0
9:31:37.6 16 20 2:32.475 28.333 78 171 0
9:33:51.9 17 21 2:14.312 32.164 73 169 0
9:36:18.7 18 22 2:26.772 29.433 67 167 0
9:38:28.0 19 23 2:09.376 33.391 74 170 0
9:40:47.1 20 25 2:19.052 31.068 83 174 0
9:43:13.3 21 26 2:26.225 29.544 68 167 0
9:45:20.0 22 27 2:06.712 34.093 73 168 0
9:47:56.9 23 28 2:36.908 27.532 70 169 0
9:50:16.8 24 29 2:19.898 30.880 78 170 0
9:52:51.3 25 30 2:34.495 27.962 72 167 0
9:55:13.6 26 32 2:22.256 30.368 76 170 0
9:57:41.7 27 33 2:28.091 29.171 72 168 0
9:59:51.9 28 34 2:10.219 33.175 69 167 0
10:02:15.9 29 35 2:23.998 30.000 81 171 0
10:04:38.2 30 37 2:22.329 30.352 71 169 0
10:07:00.5 31 38 2:22.247 30.370 80 172 0
10:09:33.2 32 39 2:32.738 28.284 72 168 0
10:11:55.2 33 40 2:22.002 30.422 76 170 0
10:14:23.2 34 41 2:27.985 29.192 73 169 0
10:16:38.1 35 43 2:14.882 32.028 69 168 0
10:18:56.5 36 44 2:18.412 31.211 68 169 0
10:21:07.1 37 45 2:10.638 33.068 70 169 0
10:23:30.4 38 46 2:23.253 30.156 76 170 0
10:25:44.9 39 48 2:14.527 32.113 68 169 0
10:27:47.5 40 49 2:02.549 35.251 71 168 0
10:30:06.7 41 50 2:19.283 31.016 66 168 0
10:31:56.0 42 51 1:49.267 39.536 70 167 0
57 - Generators Endeavour Hills SC - Community
8:55:22.3 1 1 2:46.694 25.916 77 156 0
8:57:58.7 2 3 2:36.424 27.617 69 152 0
9:00:28.4 3 4 2:29.721 28.854 84 156 0
9:03:06.6 4 5 2:38.193 27.308 83 156 0
9:05:45.4 5 7 2:38.767 27.210 76 155 0
9:11:04.7 6 9 5:19.352 13.527 77 155 0
9:13:39.2 7 11 2:34.508 27.960 67 152 0
9:16:03.7 8 12 2:24.525 29.891 79 156 0
9:18:38.9 9 13 2:35.181 27.838 73 154 0
9:21:04.0 10 15 2:25.094 29.774 67 152 0
9:23:34.2 11 16 2:30.226 28.757 72 154 0
9:26:13.3 12 17 2:39.016 27.167 75 155 0
9:28:51.6 13 19 2:38.354 27.281 81 156 0
9:31:42.6 14 20 2:50.984 25.266 78 155 0
9:34:15.6 15 21 2:32.957 28.243 74 155 0
9:36:33.9 16 22 2:18.344 31.227 71 153 0
9:38:53.2 17 24 2:19.263 31.020 79 156 0
9:41:26.9 18 25 2:33.782 28.092 70 152 0
9:43:52.3 19 26 2:25.350 29.721 69 153 0
9:46:10.4 20 27 2:18.119 31.277 68 151 0
9:48:24.1 21 28 2:13.685 32.315 79 156 0
9:51:03.7 22 29 2:39.621 27.064 79 156 0
9:53:32.1 23 31 2:28.362 29.118 66 151 0
9:55:45.1 24 32 2:13.014 32.478 69 152 0
9:58:01.7 25 33 2:16.622 31.620 74 155 0
10:00:51.7 26 34 2:49.961 25.418 67 152 0
10:03:20.0 27 36 2:28.312 29.128 70 152 0
10:05:56.7 28 37 2:36.733 27.563 73 153 0
10:08:19.6 29 38 2:22.916 30.228 74 154 0
10:11:04.3 30 40 2:44.678 26.233 73 154 0
10:13:21.9 31 41 2:17.625 31.390 64 151 0
10:15:34.8 32 42 2:12.819 32.525 77 156 0
10:18:01.0 33 43 2:26.285 29.531 68 152 0
10:20:22.7 34 45 2:21.686 30.490 67 152 0
10:22:40.1 35 46 2:17.399 31.441 71 154 0
10:25:16.9 36 47 2:36.786 27.553 69 153 0
10:27:36.1 37 49 2:19.192 31.036 71 153 0
10:29:53.4 38 50 2:17.272 31.470 63 151 0
10:32:16.3 39 51 2:22.879 30.235 73 154 0
17 - Emerald 1 Emerald PS - Primary
8:55:59.4 1 2 3:07.108 23.088 84 166 0
8:58:41.6 2 3 2:42.134 26.645 84 166 0
9:01:50.8 3 5 3:09.228 22.830 71 162 0
9:05:01.6 4 6 3:10.791 22.643 82 166 0
9:07:48.9 5 8 2:47.352 25.814 84 166 0
9:10:35.4 6 9 2:46.420 25.958 75 163 0
9:13:23.4 7 11 2:47.998 25.715 73 162 0
9:15:58.2 8 12 2:34.875 27.893 82 166 0
9:18:32.3 9 13 2:34.056 28.042 82 166 0
9:21:35.6 10 15 3:03.298 23.568 83 168 0
9:24:45.1 11 17 3:09.512 22.795 74 163 0
9:27:46.2 12 18 3:01.133 23.850 76 163 0
9:30:15.6 13 19 2:29.394 28.917 76 163 0
9:33:09.1 14 21 2:53.477 24.902 73 162 0
9:35:38.5 15 22 2:29.393 28.917 80 164 0
9:38:11.5 16 23 2:32.974 28.240 84 166 0
9:40:54.7 17 25 2:43.257 26.461 74 163 0
9:43:33.1 18 26 2:38.390 27.274 71 161 0
9:46:17.1 19 27 2:43.948 26.350 70 161 0
9:48:54.3 20 29 2:37.215 27.478 75 164 0
9:51:48.3 21 30 2:54.032 24.823 70 160 0
9:54:24.1 22 31 2:35.809 27.726 81 165 0
9:56:58.9 23 33 2:34.791 27.909 79 165 0
9:59:49.7 24 34 2:50.755 25.299 70 161 0
10:02:39.6 25 35 2:49.915 25.424 72 161 0
10:05:26.2 26 37 2:46.637 25.925 76 164 0
10:07:51.8 27 38 2:25.551 29.680 72 161 0
10:10:27.0 28 40 2:35.272 27.822 83 166 0
10:13:14.1 29 41 2:47.073 25.857 72 161 0
10:15:45.7 30 42 2:31.559 28.504 84 165 0
10:18:22.8 31 44 2:37.142 27.491 70 160 0
10:20:54.8 32 45 2:31.958 28.429 70 162 0
10:23:20.3 33 46 2:25.539 29.683 70 161 0
10:25:40.6 34 48 2:20.314 30.788 69 162 0
10:28:12.5 35 49 2:31.850 28.449 68 162 0
10:30:44.1 36 50 2:31.662 28.484 69 161 0
10:33:04.2 37 51 2:20.088 30.838 73 163 0
14 - Catwomen Beaconsfield PS - Primary
8:56:23.1 1 2 3:20.830 21.511 76 157 0
8:59:37.5 2 4 3:14.419 22.220 78 158 0
9:02:13.9 3 5 2:36.355 27.629 78 157 0
9:05:06.7 4 6 2:52.790 25.001 83 159 0
9:07:51.5 5 8 2:44.851 26.205 82 159 0
9:10:45.2 6 9 2:53.709 24.869 80 158 0
9:13:27.0 7 11 2:41.779 26.703 77 158 0
9:16:17.8 8 12 2:50.842 25.287 80 158 0
9:19:11.7 9 14 2:53.849 24.849 73 157 0
9:21:32.9 10 15 2:21.168 30.602 82 158 0
9:24:07.9 11 16 2:35.003 27.870 81 158 0
9:26:51.9 12 18 2:44.069 26.330 83 159 0
9:29:33.9 13 19 2:41.973 26.671 74 158 0
9:32:18.5 14 20 2:44.558 26.252 80 158 0
9:35:05.9 15 22 2:47.435 25.801 83 159 0
9:37:57.7 16 23 2:51.797 25.146 73 157 0
9:40:26.5 17 24 2:28.764 29.039 71 157 0
9:42:56.0 18 26 2:29.507 28.895 80 158 0
9:45:38.8 19 27 2:42.855 26.527 75 157 0
9:48:19.0 20 28 2:40.191 26.968 79 158 0
9:50:44.2 21 29 2:25.236 29.745 75 158 0
9:53:24.7 22 31 2:40.461 26.922 75 158 0
9:55:56.7 23 32 2:31.976 28.426 72 156 0
9:58:32.8 24 33 2:36.069 27.680 77 158 0
10:02:05.6 25 35 3:32.877 20.293 75 157 0
10:04:37.1 26 37 2:31.431 28.528 72 158 0
10:07:16.8 27 38 2:39.764 27.040 75 157 0
10:09:44.2 28 39 2:27.374 29.313 75 158 0
10:12:32.1 29 41 2:47.921 25.726 77 157 0
10:15:21.6 30 42 2:49.511 25.485 73 157 0
10:17:51.0 31 43 2:29.327 28.930 78 158 0
10:21:33.0 32 45 3:42.022 19.458 78 158 0
10:24:02.0 33 47 2:29.056 28.982 70 158 0
10:26:28.9 34 48 2:26.847 29.418 73 157 0
10:28:47.2 35 49 2:18.290 31.239 75 157 0
10:31:16.8 36 51 2:29.607 28.876 84 159 0
19 - Emerald 3 Emerald PS - Primary
8:56:36.9 1 2 3:27.882 20.781 83 168 0
8:59:33.7 2 4 2:56.753 24.441 73 163 0
9:02:11.1 3 5 2:37.366 27.452 75 166 0
9:04:49.9 4 6 2:38.801 27.204 72 163 0
9:07:31.2 5 8 2:41.314 26.780 69 163 0
9:11:50.6 6 10 4:19.434 16.652 76 165 0
9:14:55.8 7 11 3:05.188 23.328 80 167 0
9:17:50.4 8 13 2:54.575 24.746 79 166 0
9:20:32.5 9 14 2:42.152 26.642 80 167 0
9:23:19.9 10 16 2:47.385 25.809 79 166 0
9:26:00.2 11 17 2:40.257 26.957 73 163 0
9:28:58.6 12 19 2:58.426 24.212 79 166 0
9:32:37.7 13 21 3:39.116 19.716 76 166 0
9:35:36.3 14 22 2:58.582 24.191 79 166 0
9:38:31.6 15 23 2:55.322 24.640 77 166 0
9:41:15.0 16 25 2:43.415 26.436 75 165 0
9:43:49.4 17 26 2:34.361 27.986 71 162 0
9:46:31.0 18 27 2:41.573 26.737 75 164 0
9:49:10.3 19 29 2:39.288 27.121 78 167 0
9:52:06.0 20 30 2:55.700 24.587 79 166 0
9:54:54.6 21 32 2:48.694 25.608 76 165 0
9:57:26.2 22 33 2:31.524 28.510 73 165 0
10:00:01.9 23 34 2:35.726 27.741 68 163 0
10:02:44.6 24 36 2:42.695 26.553 67 162 0
10:05:25.2 25 37 2:40.576 26.903 77 166 0
10:08:29.3 26 39 3:04.164 23.457 76 165 0
10:11:26.2 27 40 2:56.908 24.419 76 166 0
10:14:12.4 28 41 2:46.190 25.994 75 165 0
10:16:43.5 29 43 2:31.024 28.605 70 164 0
10:19:06.8 30 44 2:23.368 30.132 66 161 0
10:21:39.5 31 45 2:32.636 28.303 69 162 0
10:23:54.7 32 47 2:15.203 31.952 75 166 0
10:26:38.1 33 48 2:43.489 26.424 66 163 0
10:28:50.9 34 49 2:12.719 32.550 74 166 0
10:31:02.3 35 50 2:11.385 32.880 73 164 0
10:33:12.8 36 51 2:10.543 33.093 70 165 0
5 - Red Rockek Tooradin PS - Primary
8:55:38.4 1 1 3:07.502 23.040 83 180 0
8:58:04.8 2 3 2:26.419 29.504 68 174 0
9:00:34.4 3 4 2:29.575 28.882 84 183 0
9:03:44.3 4 6 3:09.916 22.747 84 181 0
9:06:13.5 5 7 2:29.223 28.950 83 180 0
9:08:49.1 6 8 2:35.586 27.766 72 175 0
9:11:33.8 7 10 2:44.719 26.226 84 181 0
9:14:32.9 8 11 2:59.071 24.125 81 180 0
9:17:28.7 9 13 2:55.762 24.579 83 179 0
9:20:09.7 10 14 2:40.980 26.836 74 178 0
9:22:54.0 11 16 2:44.332 26.288 83 182 0
9:26:00.8 12 17 3:06.824 23.123 76 179 0
9:28:23.3 13 18 2:22.443 30.328 82 181 0
9:31:03.6 14 20 2:40.317 26.947 71 178 0
9:33:38.9 15 21 2:35.333 27.811 78 177 0
9:36:27.9 16 22 2:49.040 25.556 78 181 0
9:39:22.1 17 24 2:54.141 24.807 81 181 0
9:42:01.9 18 25 2:39.834 27.028 75 181 0
9:44:27.3 19 26 2:25.412 29.709 84 182 0
9:47:33.4 20 28 3:06.097 23.214 77 181 0
9:53:36.9 21 31 6:03.468 11.886 77 182 0
9:55:58.6 22 32 2:21.739 30.479 74 180 0
9:58:36.0 23 33 2:37.333 27.458 80 181 0
10:01:28.7 24 35 2:52.766 25.005 83 184 0
10:04:28.3 25 37 2:59.532 24.063 79 180 0
10:07:49.1 26 38 3:20.796 21.514 71 181 0
10:10:25.9 27 40 2:36.811 27.549 83 182 0
10:13:15.3 28 41 2:49.420 25.499 76 180 0
10:15:23.7 29 42 2:08.374 33.652 77 182 0
10:17:53.4 30 43 2:29.764 28.845 77 182 0
10:20:47.1 31 45 2:53.631 24.880 83 179 0
10:23:29.0 32 46 2:41.952 26.675 78 179 0
10:26:02.8 33 48 2:33.786 28.091 78 179 0
10:28:33.3 34 49 2:30.552 28.694 71 173 0
10:31:10.6 35 50 2:37.260 27.470 84 180 0
10:34:53.2 36 51 3:42.578 19.409 83 179 0
18 - Emerald 2 Emerald PS - Primary
8:55:36.4 1 1 2:51.159 25.240 84 170 0
8:59:12.4 2 3 3:36.027 19.998 80 169 0
9:02:06.4 3 5 2:54.006 24.827 76 169 0
9:05:09.4 4 6 3:02.944 23.614 83 170 0
9:08:12.7 5 8 3:03.323 23.565 84 171 0
9:11:31.9 6 10 3:19.252 21.681 76 166 0
9:14:34.8 7 11 3:02.844 23.627 78 168 0
9:17:26.1 8 13 2:51.345 25.212 82 169 0
9:21:26.2 9 15 4:00.077 17.994 83 170 0
9:24:13.3 10 16 2:47.103 25.852 78 167 0
9:27:19.1 11 18 3:05.804 23.250 78 168 0
9:30:06.8 12 19 2:47.667 25.765 84 170 0
9:33:13.8 13 21 3:07.016 23.100 74 167 0
9:35:50.4 14 22 2:36.560 27.593 70 166 0
9:38:25.8 15 23 2:35.484 27.784 83 170 0
9:41:24.7 16 25 2:58.853 24.154 78 169 0
9:43:59.0 17 26 2:34.339 27.990 75 167 0
9:46:36.6 18 27 2:37.560 27.418 75 167 0
9:49:15.5 19 29 2:38.948 27.179 83 169 0
9:52:12.7 20 30 2:57.195 24.380 73 166 0
9:55:02.8 21 32 2:50.105 25.396 71 164 0
9:57:48.0 22 33 2:45.182 26.153 84 169 0
10:01:05.0 23 35 3:16.964 21.933 80 167 0
10:03:40.7 24 36 2:35.731 27.740 74 166 0
10:06:15.4 25 37 2:34.658 27.933 73 167 0
10:08:53.7 26 39 2:38.324 27.286 81 169 0
10:11:47.7 27 40 2:54.046 24.821 69 166 0
10:14:22.3 28 41 2:34.607 27.942 70 165 0
10:16:58.0 29 43 2:35.606 27.762 80 168 0
10:20:07.7 30 45 3:09.697 22.773 73 167 0
10:22:27.1 31 46 2:19.407 30.988 75 166 0
10:24:52.8 32 47 2:25.787 29.632 68 166 0
10:27:05.3 33 48 2:12.414 32.625 73 166 0
10:29:31.7 34 50 2:26.403 29.508 68 166 0
10:31:52.7 35 51 2:21.039 30.630 68 165 0
6 - Flamin Mozzies Tooradin PS - Primary
8:55:41.2 1 1 3:01.888 23.751 83 174 0
8:58:48.4 2 3 3:07.135 23.085 83 174 0
9:03:08.8 3 5 4:20.465 16.586 84 171 0
9:06:20.9 4 7 3:12.034 22.496 76 171 0
9:08:39.0 5 8 2:18.151 31.270 78 171 0
9:11:15.4 6 10 2:36.380 27.625 83 174 0
9:14:44.6 7 11 3:29.239 20.646 82 172 0
9:18:14.5 8 13 3:29.846 20.587 84 173 0
9:21:46.3 9 15 3:31.817 20.395 76 171 0
9:24:23.0 10 16 2:36.734 27.563 76 172 0
9:27:27.0 11 18 3:03.957 23.484 84 172 0
9:30:48.6 12 20 3:21.588 21.430 78 171 0
9:34:14.7 13 21 3:26.068 20.964 76 171 0
9:37:20.2 14 23 3:05.569 23.280 78 171 0
9:39:39.9 15 24 2:19.639 30.937 74 168 0
9:42:39.6 16 25 2:59.719 24.038 84 172 0
9:45:23.9 17 27 2:44.355 26.285 84 175 0
9:48:38.1 18 28 3:14.128 22.253 78 171 0
9:51:51.5 19 30 3:13.433 22.333 75 170 0
9:53:58.9 20 31 2:07.363 33.919 76 169 0
9:56:43.8 21 32 2:44.959 26.188 84 171 0
9:59:28.6 22 34 2:44.802 26.213 80 171 0
10:02:47.3 23 36 3:18.723 21.739 81 171 0
10:05:45.9 24 37 2:58.602 24.188 74 169 0
10:07:57.7 25 38 2:11.805 32.776 72 170 0
10:10:16.7 26 40 2:18.991 31.081 82 172 0
10:12:58.2 27 41 2:41.470 26.754 79 171 0
10:15:33.1 28 42 2:34.934 27.883 79 172 0
10:18:15.6 29 44 2:42.504 26.584 73 169 0
10:20:14.1 30 45 1:58.438 36.475 73 168 0
10:22:53.2 31 46 2:39.089 27.155 82 173 0
10:25:24.2 32 47 2:31.040 28.602 79 172 0
10:27:31.2 33 49 2:06.935 34.033 69 169 0
10:29:37.6 34 50 2:06.413 34.174 80 172 0
10:31:54.2 35 51 2:16.655 31.612 75 170 0
10:35:23.5 35 51 3:29.279 20.642 84 175 0
26 - Piston Hearts Gold Rossbourne - Community
8:55:12.3 1 1 2:30.836 28.640 67 122 0
8:57:27.8 2 2 2:15.469 31.889 70 123 0
8:59:39.3 3 4 2:11.508 32.850 72 124 0
9:02:46.6 4 5 3:07.314 23.063 84 129 0
9:06:51.1 5 7 4:04.555 17.665 84 129 0
9:09:35.8 6 9 2:44.633 26.240 84 128 0
9:12:37.8 7 10 3:02.085 23.725 82 129 0
9:15:29.3 8 12 2:51.437 25.199 79 127 0
9:18:01.1 9 13 2:31.765 28.465 67 121 0
9:20:07.9 10 14 2:06.852 34.055 69 122 0
9:22:28.4 11 15 2:20.450 30.758 70 122 0
9:25:26.7 12 17 2:58.305 24.228 81 127 0
9:29:27.8 13 19 4:01.130 17.916 75 125 0
9:32:31.3 14 20 3:03.540 23.537 75 125 0
9:35:09.6 15 22 2:38.270 27.295 81 128 0
9:38:04.2 16 23 2:54.628 24.738 75 126 0
9:40:36.5 17 24 2:32.268 28.371 69 123 0
9:42:43.0 18 25 2:06.512 34.147 70 123 0
9:45:15.5 19 26 2:32.495 28.329 69 123 0
9:48:01.8 20 28 2:46.279 25.980 83 127 0
9:57:13.7 21 33 9:11.949 7.827 73 125 0
9:59:58.9 22 34 2:45.170 26.155 72 124 0
10:02:54.1 23 36 2:55.180 24.660 76 126 0
10:05:49.6 24 37 2:55.513 24.614 69 123 0
10:08:30.5 25 39 2:40.934 26.843 74 126 0
10:10:36.3 26 40 2:05.760 34.351 70 122 0
10:12:54.1 27 41 2:17.863 31.335 70 124 0
10:15:44.5 28 42 2:50.339 25.361 81 128 0
10:19:47.6 29 44 4:03.075 17.772 66 122 0
10:22:33.7 30 46 2:46.156 26.000 76 125 0
10:25:14.4 31 47 2:40.647 26.891 74 124 0
10:27:53.3 32 49 2:38.904 27.186 71 123 0
10:30:09.2 33 50 2:15.910 31.786 63 120 0
27 - Piston Hearts Yellow Rossbourne - Community
8:56:38.1 1 2 3:39.001 19.726 83 135 0
8:59:50.8 2 4 3:12.702 22.418 84 136 0
9:03:46.0 3 6 3:55.249 18.364 82 136 0
9:06:24.1 4 7 2:38.107 27.323 75 132 0
9:09:05.0 5 9 2:40.876 26.853 77 132 0
9:11:54.9 6 10 2:49.874 25.431 78 134 0
9:15:27.3 7 12 3:32.431 20.336 73 131 0
9:18:11.6 8 13 2:44.277 26.297 84 135 0
9:21:38.1 9 15 3:26.528 20.917 84 137 0
9:24:17.5 10 16 2:39.406 27.101 82 135 0
9:26:55.6 11 18 2:38.029 27.337 80 134 0
9:29:45.3 12 19 2:49.690 25.458 84 137 0
9:33:20.3 13 21 3:35.037 20.090 78 134 0
9:36:37.8 14 23 3:17.548 21.868 72 131 0
9:39:14.3 15 24 2:36.407 27.620 81 135 0
9:42:54.6 16 26 3:40.321 19.608 78 134 0
9:46:33.0 17 27 3:38.429 19.778 81 135 0
9:48:58.8 18 29 2:25.846 29.620 73 131 0
9:51:40.2 19 30 2:41.309 26.781 71 131 0
9:54:25.5 20 31 2:45.378 26.122 81 135 0
9:57:50.6 21 33 3:25.043 21.069 83 136 0
10:01:12.7 22 35 3:22.126 21.373 70 132 0
10:04:18.0 23 36 3:05.253 23.319 78 134 0
10:06:45.7 24 38 2:27.745 29.240 71 130 0
10:09:12.8 25 39 2:27.052 29.377 76 132 0
10:11:53.2 26 40 2:40.444 26.925 77 134 0
10:15:11.5 27 42 3:18.281 21.787 80 135 0
10:18:16.7 28 44 3:05.178 23.329 76 133 0
10:20:44.4 29 45 2:27.746 29.239 78 135 0
10:23:13.3 30 46 2:28.900 29.013 71 132 0
10:25:33.3 31 48 2:19.990 30.859 71 132 0
10:27:50.1 32 49 2:16.759 31.588 74 133 0
10:30:26.9 33 50 2:36.821 27.547 68 130 0
7 - Tyabb1 Tyabb PS - Community
8:56:29.7 1 2 3:12.649 22.424 79 136 0
9:00:24.6 2 4 3:54.909 18.390 83 138 0
9:04:45.0 3 6 4:20.414 16.589 78 136 0
9:07:41.4 4 8 2:56.356 24.496 82 139 0
9:10:49.6 5 9 3:08.225 22.951 76 137 0
9:13:57.1 6 11 3:07.487 23.042 82 138 0
9:17:05.2 7 13 3:08.096 22.967 78 137 0
9:20:02.4 8 14 2:57.169 24.383 78 138 0
9:23:36.8 9 16 3:34.387 20.150 76 137 0
9:26:08.4 10 17 2:31.660 28.485 79 137 0
9:29:18.9 11 19 3:10.431 22.685 78 136 0
9:32:47.6 12 21 3:28.702 20.699 77 138 0
9:35:43.5 13 22 2:55.908 24.558 78 136 0
9:38:57.3 14 24 3:13.790 22.292 78 137 0
9:42:03.4 15 25 3:06.168 23.205 72 136 0
9:44:30.9 16 26 2:27.492 29.290 79 139 0
9:48:00.9 17 28 3:30.014 20.570 77 137 0
9:51:02.4 18 29 3:01.426 23.811 78 137 0
9:53:56.3 19 31 2:53.910 24.840 76 136 0
9:57:43.9 20 33 3:47.646 18.977 80 138 0
10:00:56.6 21 34 3:12.663 22.423 71 134 0
10:03:24.2 22 36 2:27.594 29.269 77 138 0
10:06:01.6 23 37 2:37.409 27.444 73 135 0
10:08:56.3 24 39 2:54.758 24.720 81 139 0
10:12:03.9 25 40 3:07.593 23.029 78 137 0
10:15:07.8 26 42 3:03.826 23.500 78 137 0
10:17:54.5 27 43 2:46.707 25.914 72 136 0
10:20:10.1 28 45 2:15.677 31.840 75 136 0
10:22:42.9 29 46 2:32.782 28.276 76 137 0
10:25:22.9 30 47 2:40.014 26.998 77 138 0
10:28:07.8 31 49 2:44.863 26.204 77 138 0
10:31:09.1 32 50 3:01.299 23.828 81 139 0
10:34:12.9 33 51 3:03.761 23.509 84 143 0
29 - Tyabb 2 Tyabb PS - Community
8:55:57.7 1 2 3:06.748 23.133 82 114 0
8:59:35.5 2 4 3:37.775 19.837 77 112 0
9:02:49.5 3 5 3:14.027 22.265 82 114 0
9:06:10.5 4 7 3:20.970 21.496 83 112 0
9:09:30.5 5 9 3:20.043 21.595 79 112 0
9:12:41.9 6 10 3:11.365 22.575 79 113 0
9:15:53.7 7 12 3:11.775 22.526 77 112 0
9:19:06.2 8 14 3:12.509 22.441 68 109 0
9:22:00.8 9 15 2:54.601 24.742 79 113 0
9:25:29.8 10 17 3:29.032 20.667 82 112 0
9:28:33.8 11 18 3:04.035 23.474 80 114 0
9:31:34.2 12 20 3:00.375 23.950 78 111 0
9:34:41.2 13 21 3:07.005 23.101 77 113 0
9:37:43.4 14 23 3:02.208 23.709 71 111 0
9:40:35.2 15 24 2:51.815 25.143 78 111 0
9:44:02.6 16 26 3:27.317 20.838 71 110 0
9:47:14.9 17 28 3:12.348 22.459 76 112 0
9:50:47.7 18 29 3:32.771 20.304 74 111 0
9:53:41.4 19 31 2:53.680 24.873 78 113 0
9:57:16.4 20 33 3:35.040 20.089 72 111 0
10:00:14.6 21 34 2:58.229 24.238 73 111 0
10:03:25.6 22 36 3:10.958 22.623 78 112 0
10:06:03.4 23 37 2:37.787 27.379 70 111 0
10:09:02.3 24 39 2:58.917 24.145 68 110 0
10:11:39.4 25 40 2:37.152 27.489 81 112 0
10:14:47.2 26 42 3:07.770 23.007 75 110 0
10:17:34.6 27 43 2:47.432 25.802 81 114 0
10:20:35.3 28 45 3:00.620 23.918 70 110 0
10:23:24.4 29 46 2:49.174 25.536 75 110 0
10:25:58.4 30 48 2:33.995 28.053 67 110 0
10:28:21.3 31 49 2:22.858 30.240 70 110 0
10:31:13.0 32 51 2:51.762 25.151 79 115 0
10:33:16.3 32 51 2:03.300 35.036 78 112 0
15 - Dash Beaconsfield PS - Primary
8:56:10.6 1 2 3:06.500 23.164 80 156 0
8:59:06.8 2 3 2:56.269 24.508 84 155 0
9:02:04.6 3 5 2:57.757 24.303 82 156 0
9:05:28.7 4 7 3:24.143 21.162 75 155 0
9:08:37.9 5 8 3:09.141 22.840 77 154 0
9:12:11.6 6 10 3:33.710 20.214 82 155 0
9:15:13.5 7 12 3:01.879 23.752 77 156 0
9:18:23.0 8 13 3:09.535 22.793 83 156 0
9:21:34.2 9 15 3:11.230 22.591 82 156 0
9:25:00.3 10 17 3:26.061 20.965 77 156 0
9:28:01.2 11 18 3:00.944 23.875 77 156 0
9:31:39.6 12 20 3:38.371 19.783 82 156 0
9:34:27.9 13 21 2:48.271 25.673 83 156 0
9:37:27.2 14 23 2:59.289 24.095 83 156 0
9:40:30.9 15 24 3:03.785 23.506 83 156 0
9:43:46.1 16 26 3:15.178 22.134 78 155 0
9:46:43.0 17 27 2:56.833 24.430 82 156 0
9:49:55.2 18 29 3:12.294 22.466 83 156 0
9:53:04.1 19 31 3:08.805 22.881 77 155 0
9:55:52.5 20 32 2:48.490 25.640 82 156 0
9:58:47.9 21 33 2:55.334 24.639 83 157 0
10:02:20.0 22 35 3:32.173 20.361 77 155 0
10:05:19.3 23 37 2:59.216 24.105 78 155 0
10:08:26.3 24 39 3:07.021 23.099 83 156 0
10:11:37.7 25 40 3:11.401 22.570 76 155 0
10:14:42.6 26 42 3:04.945 23.358 82 155 0
10:17:49.4 27 43 3:06.809 23.125 84 156 0
10:20:57.8 28 45 3:08.312 22.941 73 155 0
10:24:02.1 29 47 3:04.394 23.428 75 155 0
10:27:33.4 30 49 3:31.216 20.453 83 156 0
10:30:54.6 31 50 3:21.197 21.471 78 155 0
28 - Piston Hearts Blue Rossbourne - Community
8:56:41.8 1 2 3:41.080 19.540 80 130 0
8:59:55.1 2 4 3:13.311 22.347 83 130 0
9:03:43.6 3 6 3:48.474 18.908 83 132 0
9:07:44.1 4 8 4:00.501 17.963 84 133 0
9:11:29.0 5 10 3:44.864 19.212 78 130 0
9:14:17.4 6 11 2:48.444 25.647 75 130 0
9:17:07.0 7 13 2:49.608 25.470 78 130 0
9:20:22.4 8 14 3:15.424 22.106 84 132 0
9:23:27.6 9 16 3:05.147 23.333 79 131 0
9:26:53.7 10 18 3:26.143 20.956 83 132 0
9:30:18.7 11 19 3:25.027 21.070 77 132 0
9:33:58.2 12 21 3:39.476 19.683 79 132 0
9:37:21.6 13 23 3:23.397 21.239 75 132 0
9:40:12.8 14 24 2:51.161 25.239 76 131 0
9:42:57.0 15 26 2:44.229 26.305 84 133 0
9:45:45.5 16 27 2:48.484 25.640 83 133 0
9:48:44.1 17 28 2:58.618 24.186 81 132 0
9:51:58.0 18 30 3:13.885 22.281 81 134 0
9:56:11.7 19 32 4:13.684 17.029 79 133 0
9:59:44.9 20 34 3:33.216 20.261 79 133 0
10:03:27.8 21 36 3:42.893 19.381 77 132 0
10:06:20.3 22 37 2:52.494 25.044 68 127 0
10:09:18.8 23 39 2:58.558 24.194 76 132 0
10:12:07.6 24 40 2:48.797 25.593 84 133 0
10:15:29.9 25 42 3:22.267 21.358 81 132 0
10:18:35.6 26 44 3:05.649 23.270 76 131 0
10:21:53.2 27 46 3:17.690 21.852 83 133 0
10:25:26.6 28 47 3:33.353 20.248 79 133 0
10:28:18.6 29 49 2:52.010 25.115 67 129 0
10:31:04.3 30 50 2:45.647 26.080 69 130 0
Generated on 6/20/2013 02:20 AM